createdAt,value
2023-12-11T00:01:41.568Z,10.07
2023-12-11T00:04:08.560Z,9.82
2023-12-11T00:06:35.611Z,8.88
2023-12-11T00:09:02.488Z,10.32
2023-12-11T00:11:29.322Z,9.10
2023-12-11T00:13:56.331Z,10.48
2023-12-11T00:16:23.378Z,8.73
2023-12-11T00:18:50.338Z,9.70
2023-12-11T00:21:17.676Z,9.30
2023-12-11T00:23:44.661Z,9.73
2023-12-11T00:26:11.977Z,9.07
2023-12-11T00:28:38.913Z,9.45
2023-12-11T00:31:12.025Z,10.00
2023-12-11T00:33:40.756Z,8.63
2023-12-11T00:36:08.041Z,9.68
2023-12-11T00:38:34.876Z,9.93
2023-12-11T00:41:01.764Z,9.38
2023-12-11T00:43:28.566Z,9.07
2023-12-11T00:46:21.223Z,10.57
2023-12-11T00:48:48.313Z,9.32
2023-12-11T00:51:19.524Z,9.20
2023-12-11T00:53:47.601Z,10.05
2023-12-11T00:56:14.940Z,8.82
2023-12-11T00:58:41.807Z,8.68
2023-12-11T01:01:09.157Z,8.98
2023-12-11T01:03:39.991Z,9.80
2023-12-11T01:06:07.297Z,10.27
2023-12-11T01:08:39.517Z,9.20
2023-12-11T01:11:07.551Z,9.73
2023-12-11T01:13:34.416Z,8.57
2023-12-11T01:16:01.537Z,10.23
2023-12-11T01:18:28.888Z,10.10
2023-12-11T01:20:56.046Z,9.18
2023-12-11T01:23:22.866Z,9.23
2023-12-11T01:25:49.812Z,8.90
2023-12-11T01:28:16.747Z,9.15
2023-12-11T01:30:43.841Z,10.13
2023-12-11T01:33:10.849Z,9.20
2023-12-11T01:35:38.680Z,8.82
2023-12-11T01:38:05.537Z,8.73
2023-12-11T01:40:32.552Z,9.23
2023-12-11T01:43:18.158Z,9.40
2023-12-11T01:45:53.815Z,8.70
2023-12-11T01:48:20.908Z,8.77
2023-12-11T01:50:48.068Z,9.40
2023-12-11T01:53:14.989Z,8.38
2023-12-11T01:55:42.283Z,8.90
2023-12-11T01:58:09.808Z,9.13
2023-12-11T02:00:36.889Z,7.30
2023-12-11T02:03:03.933Z,8.88
2023-12-11T02:05:31.357Z,8.65
2023-12-11T02:07:58.357Z,8.35
2023-12-11T02:10:25.527Z,8.98
2023-12-11T02:12:52.518Z,8.32
2023-12-11T02:15:45.371Z,8.70
2023-12-11T02:18:14.710Z,8.73
2023-12-11T02:20:42.614Z,10.05
2023-12-11T02:23:46.694Z,9.20
2023-12-11T02:26:17.790Z,9.02
2023-12-11T02:28:45.372Z,9.77
2023-12-11T02:31:12.746Z,8.45
2023-12-11T02:33:39.756Z,9.00
2023-12-11T02:36:07.178Z,7.28
2023-12-11T02:38:34.101Z,8.57
2023-12-11T02:41:01.117Z,9.23
2023-12-11T02:43:28.037Z,9.13
2023-12-11T02:45:54.946Z,9.10
2023-12-11T02:48:21.891Z,8.82
2023-12-11T02:50:48.838Z,9.27
2023-12-11T02:53:15.721Z,8.20
2023-12-11T02:55:42.911Z,9.40
2023-12-11T02:58:09.815Z,8.25
2023-12-11T03:00:37.244Z,8.35
2023-12-11T03:03:04.667Z,8.65
2023-12-11T03:05:31.547Z,8.73
2023-12-11T03:07:58.487Z,7.93
2023-12-11T03:10:25.420Z,8.77
2023-12-11T03:12:52.293Z,9.68
2023-12-11T03:15:19.154Z,8.02
2023-12-11T03:17:48.172Z,9.13
2023-12-11T03:20:15.451Z,9.82
2023-12-11T03:22:42.385Z,9.18
2023-12-11T03:25:09.762Z,9.20
2023-12-11T03:27:36.968Z,8.70
2023-12-11T03:30:04.210Z,9.63
2023-12-11T03:32:31.221Z,9.10
2023-12-11T03:34:58.178Z,8.80
2023-12-11T03:37:25.065Z,8.65
2023-12-11T03:39:52.022Z,8.40
2023-12-11T03:42:18.974Z,8.10
2023-12-11T03:44:45.893Z,10.18
2023-12-11T03:47:13.325Z,8.35
2023-12-11T03:49:40.322Z,9.07
2023-12-11T03:52:07.233Z,7.93
2023-12-11T03:54:34.254Z,7.90
2023-12-11T03:57:01.112Z,8.05
2023-12-11T03:59:27.918Z,7.20
2023-12-11T04:01:54.894Z,8.43
2023-12-11T04:04:21.930Z,7.85
2023-12-11T04:06:48.911Z,8.18
2023-12-11T04:09:15.773Z,8.32
2023-12-11T04:11:44.434Z,8.70
2023-12-11T04:14:11.329Z,8.25
2023-12-11T04:16:42.748Z,8.60
2023-12-11T04:19:12.356Z,6.82
2023-12-11T04:21:39.797Z,8.20
2023-12-11T04:24:06.879Z,8.32
2023-12-11T04:26:33.807Z,7.97
2023-12-11T04:29:00.774Z,7.13
2023-12-11T04:31:27.742Z,9.35
2023-12-11T04:33:54.801Z,9.15
2023-12-11T04:36:21.880Z,8.82
2023-12-11T04:38:48.744Z,7.97
2023-12-11T04:41:15.628Z,8.88
2023-12-11T04:43:42.538Z,7.45
2023-12-11T04:46:09.356Z,7.05
2023-12-11T04:48:36.414Z,7.78
2023-12-11T04:51:04.427Z,7.00
2023-12-11T04:53:31.322Z,7.30
2023-12-11T04:55:58.213Z,7.00
2023-12-11T04:58:25.053Z,7.40
2023-12-11T05:00:51.973Z,7.05
2023-12-11T05:03:19.380Z,6.18
2023-12-11T05:05:46.245Z,6.32
2023-12-11T05:08:13.704Z,6.30
2023-12-11T05:10:40.496Z,5.25
2023-12-11T05:13:08.925Z,6.10
2023-12-11T05:15:35.897Z,6.20
2023-12-11T05:18:02.723Z,5.25
2023-12-11T05:20:29.558Z,6.20
2023-12-11T05:22:56.454Z,6.38
2023-12-11T05:25:23.348Z,5.75
2023-12-11T05:27:50.190Z,5.95
2023-12-11T05:30:17.247Z,5.50
2023-12-11T05:32:45.412Z,5.20
2023-12-11T05:35:14.985Z,5.22
2023-12-11T05:37:41.798Z,4.95
2023-12-11T05:40:21.810Z,5.55
2023-12-11T05:42:51.678Z,5.20
2023-12-11T05:45:18.789Z,5.35
2023-12-11T05:47:45.655Z,5.00
2023-12-11T05:50:13.362Z,5.32
2023-12-11T05:52:40.294Z,5.35
2023-12-11T05:55:07.461Z,4.63
2023-12-11T05:57:34.308Z,4.60
2023-12-11T06:00:01.170Z,4.72
2023-12-11T06:02:28.138Z,4.80
2023-12-11T06:04:55.112Z,5.35
2023-12-11T06:07:21.954Z,4.72
2023-12-11T06:09:48.802Z,4.90
2023-12-11T06:12:15.701Z,4.10
2023-12-11T06:14:45.211Z,4.88
2023-12-11T06:17:14.106Z,5.15
2023-12-11T06:19:44.388Z,4.80
2023-12-11T06:22:11.653Z,5.00
2023-12-11T06:24:42.556Z,4.78
2023-12-11T06:27:10.155Z,5.28
2023-12-11T06:29:37.874Z,5.70
2023-12-11T06:32:05.211Z,4.75
2023-12-11T06:34:33.105Z,4.75
2023-12-11T06:37:00.251Z,4.75
2023-12-11T06:39:28.245Z,4.80
2023-12-11T06:41:55.270Z,4.97
2023-12-11T06:44:22.722Z,5.22
2023-12-11T06:46:49.647Z,5.80
2023-12-11T06:49:16.733Z,5.45
2023-12-11T06:51:43.790Z,5.10
2023-12-11T06:54:12.167Z,5.03
2023-12-11T06:56:39.461Z,3.67
2023-12-11T06:59:06.345Z,3.90
2023-12-11T07:01:35.397Z,4.32
2023-12-11T07:04:04.433Z,3.45
2023-12-11T07:06:31.700Z,3.90
2023-12-11T07:08:59.135Z,3.25
2023-12-11T07:11:26.455Z,3.65
2023-12-11T07:13:54.723Z,3.78
2023-12-11T07:16:22.191Z,3.40
2023-12-11T07:18:49.224Z,3.78
2023-12-11T07:21:16.314Z,3.28
2023-12-11T07:23:45.125Z,3.63
2023-12-11T07:26:12.017Z,3.10
2023-12-11T07:28:40.007Z,3.45
2023-12-11T07:31:07.722Z,3.15
2023-12-11T07:33:35.535Z,3.15
2023-12-11T07:36:03.491Z,3.70
2023-12-11T07:38:31.513Z,3.17
2023-12-11T07:40:59.004Z,3.28
2023-12-11T07:43:26.180Z,2.88
2023-12-11T07:45:54.015Z,3.78
2023-12-11T07:48:21.424Z,3.45
2023-12-11T07:50:48.794Z,3.30
2023-12-11T07:53:15.894Z,3.20
2023-12-11T07:55:42.815Z,3.67
2023-12-11T07:58:11.925Z,2.67
2023-12-11T08:00:39.036Z,3.95
2023-12-11T08:03:07.422Z,3.80
2023-12-11T08:05:34.633Z,3.50
2023-12-11T08:08:02.666Z,3.50
2023-12-11T08:10:29.958Z,3.90
2023-12-11T08:12:56.981Z,3.85
2023-12-11T08:15:23.904Z,4.00
2023-12-11T08:17:50.842Z,4.40
2023-12-11T08:20:19.534Z,3.78
2023-12-11T08:22:46.888Z,4.32
2023-12-11T08:25:15.096Z,3.80
2023-12-11T08:27:43.787Z,3.92
2023-12-11T08:30:12.016Z,4.75
2023-12-11T08:32:41.011Z,3.75
2023-12-11T08:35:09.582Z,3.30
2023-12-11T08:37:37.921Z,3.83
2023-12-11T08:40:06.239Z,3.70
2023-12-11T08:42:38.907Z,3.33
2023-12-11T08:45:08.731Z,3.25
2023-12-11T08:47:39.102Z,3.85
2023-12-11T08:50:08.583Z,3.78
2023-12-11T08:52:37.105Z,3.88
2023-12-11T08:55:05.153Z,3.53
2023-12-11T08:57:32.669Z,3.50
2023-12-11T08:59:59.720Z,4.03
2023-12-11T09:02:26.720Z,3.38
2023-12-11T09:04:53.758Z,3.55
2023-12-11T09:07:20.780Z,3.72
2023-12-11T09:09:47.900Z,4.05
2023-12-11T09:12:23.462Z,3.60
2023-12-11T09:14:58.206Z,3.33
2023-12-11T09:17:25.292Z,3.45
2023-12-11T09:19:55.673Z,3.50
2023-12-11T09:22:24.078Z,3.08
2023-12-11T09:24:51.481Z,2.60
2023-12-11T09:27:18.428Z,2.90
2023-12-11T09:29:49.705Z,2.45
2023-12-11T09:34:44.150Z,3.85
2023-12-11T09:37:11.188Z,3.33
2023-12-11T09:39:39.980Z,2.85
2023-12-11T09:42:08.440Z,2.67
2023-12-11T09:44:37.310Z,2.97
2023-12-11T09:47:12.240Z,2.95
2023-12-11T09:49:39.820Z,3.38
2023-12-11T09:52:07.246Z,2.83
2023-12-11T09:54:34.293Z,3.10
2023-12-11T09:57:02.160Z,2.80
2023-12-11T09:59:30.968Z,2.80
2023-12-11T10:01:58.954Z,2.75
2023-12-11T10:04:26.188Z,3.63
2023-12-11T10:06:53.713Z,3.10
2023-12-11T10:09:31.212Z,3.00
2023-12-11T10:12:02.995Z,3.28
2023-12-11T10:16:59.096Z,3.42
2023-12-11T10:19:33.142Z,3.42
2023-12-11T10:22:01.825Z,3.65
2023-12-11T10:24:30.880Z,2.92
2023-12-11T10:26:58.530Z,3.50
2023-12-11T10:29:27.461Z,3.67
2023-12-11T10:32:03.974Z,3.63
2023-12-11T10:34:51.691Z,3.60
2023-12-11T10:37:19.084Z,3.55
2023-12-11T10:39:56.643Z,4.20
2023-12-11T10:42:24.681Z,3.60
2023-12-11T10:44:54.288Z,4.05
2023-12-11T10:47:22.063Z,4.35
2023-12-11T10:49:50.567Z,4.30
2023-12-11T10:52:18.840Z,4.47
2023-12-11T10:54:46.898Z,4.50
2023-12-11T10:57:16.194Z,4.38
2023-12-11T10:59:45.485Z,4.18
2023-12-11T11:02:16.840Z,4.10
2023-12-11T11:04:45.653Z,4.00
2023-12-11T11:07:24.343Z,4.20
2023-12-11T11:10:14.774Z,3.28
2023-12-11T11:13:21.817Z,3.10
2023-12-11T11:15:55.384Z,3.92
2023-12-11T11:18:22.509Z,3.35
2023-12-11T11:21:13.744Z,2.72
2023-12-11T11:23:43.522Z,3.85
2023-12-11T11:26:36.991Z,3.03
2023-12-11T11:29:05.924Z,3.20
2023-12-11T11:31:53.816Z,2.53
2023-12-11T11:34:46.380Z,3.20
2023-12-11T11:37:22.266Z,3.20
2023-12-11T11:40:04.274Z,3.10
2023-12-11T11:42:36.657Z,2.90
2023-12-11T11:45:06.503Z,2.88
2023-12-11T11:47:33.793Z,3.00
2023-12-11T11:50:08.801Z,3.08
2023-12-11T11:52:37.292Z,3.17
2023-12-11T11:55:10.384Z,3.00
2023-12-11T11:57:37.268Z,3.17
2023-12-11T12:00:07.271Z,3.65
2023-12-11T12:02:34.075Z,3.78
2023-12-11T12:05:12.025Z,3.90
2023-12-11T12:07:40.933Z,3.90
2023-12-11T12:10:14.298Z,3.83
2023-12-11T12:12:41.321Z,3.95
2023-12-11T12:15:08.987Z,4.13
2023-12-11T12:17:38.450Z,3.63
2023-12-11T12:20:15.883Z,3.78
2023-12-11T12:22:59.553Z,3.42
2023-12-11T12:25:27.863Z,3.50
2023-12-11T12:27:57.076Z,4.22
2023-12-11T12:30:24.329Z,3.97
2023-12-11T12:32:52.595Z,4.10
2023-12-11T12:35:21.304Z,3.20
2023-12-11T12:37:50.597Z,3.33
2023-12-11T12:40:18.903Z,3.08
2023-12-11T12:42:47.134Z,3.28
2023-12-11T12:45:34.269Z,3.65
2023-12-11T12:48:04.130Z,3.65
2023-12-11T12:50:31.207Z,3.45
2023-12-11T12:53:07.688Z,3.85
2023-12-11T12:55:34.819Z,3.10
2023-12-11T12:58:01.866Z,3.40
2023-12-11T13:00:28.956Z,3.38
2023-12-11T13:02:56.067Z,3.83
2023-12-11T13:05:37.047Z,3.67
2023-12-11T13:08:03.937Z,3.77
2023-12-11T13:10:30.831Z,3.15
2023-12-11T13:12:57.659Z,3.55
2023-12-11T13:15:24.497Z,3.90
2023-12-11T13:17:56.508Z,3.78
2023-12-11T13:20:23.699Z,3.38
2023-12-11T13:22:50.700Z,3.72
2023-12-11T13:25:17.580Z,3.40
2023-12-11T13:27:48.038Z,3.70
2023-12-11T13:30:18.041Z,3.33
2023-12-11T13:32:45.339Z,3.33
2023-12-11T13:35:12.425Z,2.88
2023-12-11T13:37:40.173Z,3.45
2023-12-11T13:40:08.417Z,3.17
2023-12-11T13:42:35.562Z,3.13
2023-12-11T13:45:03.039Z,2.67
2023-12-11T13:47:30.432Z,3.47
2023-12-11T13:49:57.807Z,3.25
2023-12-11T13:52:24.780Z,3.00
2023-12-11T13:54:52.059Z,3.42
2023-12-11T13:57:22.113Z,3.13
2023-12-11T13:59:50.544Z,2.97
2023-12-11T14:02:57.884Z,4.07
2023-12-11T14:05:05.614Z,2.88
2023-12-11T14:07:33.281Z,3.58
2023-12-11T14:10:00.500Z,3.35
2023-12-11T14:12:28.077Z,3.40
2023-12-11T14:14:54.884Z,3.50
2023-12-11T14:17:21.819Z,3.63
2023-12-11T14:19:50.063Z,4.00
2023-12-11T14:22:17.027Z,3.15
2023-12-11T14:24:45.339Z,3.72
2023-12-11T14:27:14.041Z,4.22
2023-12-11T14:29:41.942Z,2.83
2023-12-11T14:32:09.229Z,3.88
2023-12-11T14:34:42.722Z,3.33
2023-12-11T14:37:11.301Z,3.60
2023-12-11T14:39:40.133Z,4.38
2023-12-11T14:42:07.569Z,2.95
2023-12-11T14:44:37.870Z,3.80
2023-12-11T14:47:06.080Z,3.60
2023-12-11T14:49:33.715Z,3.08
2023-12-11T14:52:01.285Z,3.22
2023-12-11T14:54:28.133Z,2.72
2023-12-11T14:56:55.275Z,3.15
2023-12-11T14:59:22.206Z,3.40
2023-12-11T15:01:49.395Z,3.00
2023-12-11T15:04:16.390Z,3.42
2023-12-11T15:06:43.380Z,3.08
2023-12-11T15:09:14.789Z,3.03
2023-12-11T15:11:41.646Z,3.45
2023-12-11T15:14:09.614Z,3.20
2023-12-11T15:16:42.453Z,3.13
2023-12-11T15:19:10.339Z,3.28
2023-12-11T15:21:38.353Z,3.40
2023-12-11T15:24:06.627Z,3.00
2023-12-11T15:26:33.727Z,2.83
2023-12-11T15:29:04.868Z,3.30
2023-12-11T15:31:31.997Z,2.92
2023-12-11T15:33:58.944Z,3.47
2023-12-11T15:36:26.017Z,2.65
2023-12-11T15:38:53.008Z,3.53
2023-12-11T15:41:19.873Z,3.38
2023-12-11T15:43:49.578Z,2.90
2023-12-11T15:46:16.949Z,2.97
2023-12-11T15:48:48.111Z,3.22
2023-12-11T15:51:17.160Z,2.92
2023-12-11T15:53:48.079Z,2.70
2023-12-11T15:56:17.408Z,3.10
2023-12-11T15:58:45.236Z,2.80
2023-12-11T16:01:12.829Z,2.70
2023-12-11T16:03:40.293Z,2.55
2023-12-11T16:06:08.344Z,2.28
2023-12-11T16:08:35.509Z,3.00
2023-12-11T16:11:02.436Z,2.08
2023-12-11T16:13:29.490Z,3.00
2023-12-11T16:15:57.542Z,3.28
2023-12-11T16:18:24.557Z,2.50
2023-12-11T16:20:51.425Z,3.28
2023-12-11T16:23:18.274Z,2.70
2023-12-11T16:25:51.803Z,2.70
2023-12-11T16:28:26.914Z,2.45
2023-12-11T16:30:54.105Z,2.63
2023-12-11T16:33:21.348Z,2.50
2023-12-11T16:35:48.413Z,3.15
2023-12-11T16:38:15.297Z,3.28
2023-12-11T16:40:42.226Z,3.05
2023-12-11T16:43:09.896Z,2.78
2023-12-11T16:45:37.044Z,3.17
2023-12-11T16:48:04.183Z,2.88
2023-12-11T16:50:31.356Z,2.75
2023-12-11T16:52:58.215Z,2.72
2023-12-11T16:55:26.423Z,2.72
2023-12-11T16:57:53.466Z,3.22
2023-12-11T17:00:20.527Z,3.10
2023-12-11T17:02:47.400Z,2.90
2023-12-11T17:05:14.458Z,3.15
2023-12-11T17:07:41.425Z,2.55
2023-12-11T17:10:08.784Z,2.47
2023-12-11T17:12:36.460Z,2.58
2023-12-11T17:15:04.052Z,2.58
2023-12-11T17:17:31.601Z,2.50
2023-12-11T17:19:59.181Z,2.58
2023-12-11T17:22:26.715Z,2.00
2023-12-11T17:24:53.951Z,2.40
2023-12-11T17:27:21.062Z,2.47
2023-12-11T17:29:47.924Z,2.25
2023-12-11T17:32:14.833Z,2.58
2023-12-11T17:34:42.897Z,2.20
2023-12-11T17:37:10.110Z,2.10
2023-12-11T17:39:36.942Z,2.67
2023-12-11T17:42:04.023Z,2.40
2023-12-11T17:44:30.928Z,2.50
2023-12-11T17:46:57.682Z,2.55
2023-12-11T17:49:24.631Z,2.83
2023-12-11T17:51:53.191Z,2.28
2023-12-11T17:54:20.105Z,1.95
2023-12-11T17:56:47.184Z,1.90
2023-12-11T17:59:14.030Z,2.45
2023-12-11T18:01:41.350Z,2.25
2023-12-11T18:04:11.576Z,2.10
2023-12-11T18:06:40.908Z,2.05
2023-12-11T18:09:08.467Z,2.80
2023-12-11T18:11:35.400Z,2.55
2023-12-11T18:14:02.350Z,2.38
2023-12-11T18:16:29.216Z,2.28
2023-12-11T18:18:56.281Z,2.65
2023-12-11T18:21:23.166Z,2.28
2023-12-11T18:23:49.950Z,2.63
2023-12-11T18:26:16.796Z,2.28
2023-12-11T18:28:43.850Z,2.05
2023-12-11T18:31:10.799Z,1.75
2023-12-11T18:33:37.742Z,2.22
2023-12-11T18:36:05.012Z,1.73
2023-12-11T18:38:31.895Z,2.13
2023-12-11T18:40:59.469Z,1.30
2023-12-11T18:43:26.664Z,1.55
2023-12-11T18:45:53.846Z,1.63
2023-12-11T18:48:23.359Z,1.70
2023-12-11T18:50:50.322Z,1.80
2023-12-11T18:53:17.152Z,1.95
2023-12-11T18:55:59.743Z,1.75
2023-12-11T18:58:27.080Z,2.22
2023-12-11T19:00:54.120Z,1.98
2023-12-11T19:03:21.047Z,1.77
2023-12-11T19:05:47.872Z,1.65
2023-12-11T19:08:14.727Z,2.00
2023-12-11T19:10:41.549Z,1.55
2023-12-11T19:13:08.433Z,1.65
2023-12-11T19:15:35.305Z,1.67
2023-12-11T19:18:02.657Z,1.65
2023-12-11T19:20:29.567Z,1.98
2023-12-11T19:22:56.416Z,1.63
2023-12-11T19:25:23.251Z,1.88
2023-12-11T19:27:50.137Z,1.70
2023-12-11T19:30:17.137Z,2.00
2023-12-11T19:32:44.749Z,1.88
2023-12-11T19:35:12.776Z,1.42
2023-12-11T19:37:40.600Z,1.63
2023-12-11T19:40:08.305Z,1.80
2023-12-11T19:42:35.304Z,1.77
2023-12-11T19:45:02.122Z,1.40
2023-12-11T19:47:29.341Z,1.40
2023-12-11T19:49:56.308Z,1.75
2023-12-11T19:52:23.193Z,1.40
2023-12-11T19:54:50.072Z,1.67
2023-12-11T19:57:17.062Z,2.15
2023-12-11T19:59:44.933Z,2.05
2023-12-11T20:02:12.007Z,2.03
2023-12-11T20:04:42.860Z,1.55
2023-12-11T20:07:10.213Z,1.70
2023-12-11T20:09:37.266Z,1.73
2023-12-11T20:12:11.073Z,1.85
2023-12-11T20:14:41.255Z,1.50
2023-12-11T20:17:08.067Z,1.85
2023-12-11T20:19:35.410Z,1.67
2023-12-11T20:22:02.451Z,1.70
2023-12-11T20:24:29.733Z,1.75
2023-12-11T20:26:56.620Z,1.75
2023-12-11T20:29:23.538Z,1.90
2023-12-11T20:31:53.155Z,2.13
2023-12-11T20:34:20.285Z,3.00
2023-12-11T20:36:49.265Z,1.63
2023-12-11T20:39:16.194Z,1.67
2023-12-11T20:41:43.054Z,1.58
2023-12-11T20:44:09.917Z,1.50
2023-12-11T20:46:36.873Z,1.70
2023-12-11T20:49:03.899Z,1.50
2023-12-11T20:51:30.759Z,1.33
2023-12-11T20:53:57.575Z,1.40
2023-12-11T20:56:26.390Z,1.80
2023-12-11T20:58:54.538Z,1.80
2023-12-11T21:01:28.999Z,1.52
2023-12-11T21:04:01.583Z,1.65
2023-12-11T21:06:29.418Z,1.70
2023-12-11T21:08:56.733Z,1.50
2023-12-11T21:11:23.976Z,2.00
2023-12-11T21:13:51.080Z,1.58
2023-12-11T21:16:18.862Z,2.08
2023-12-11T21:18:46.884Z,1.60
2023-12-11T21:21:17.350Z,1.55
2023-12-11T21:23:45.081Z,1.67
2023-12-11T21:26:22.515Z,1.70
2023-12-11T21:28:50.367Z,1.35
2023-12-11T21:31:19.099Z,1.40
2023-12-11T21:33:46.447Z,1.70
2023-12-11T21:36:13.738Z,1.90
2023-12-11T21:38:40.719Z,1.88
2023-12-11T21:41:14.244Z,2.10
2023-12-11T21:43:45.177Z,1.90
2023-12-11T21:46:12.362Z,2.08
2023-12-11T21:48:40.367Z,2.00
2023-12-11T21:51:07.910Z,1.48
2023-12-11T21:53:34.847Z,1.80
2023-12-11T21:56:01.939Z,1.80
2023-12-11T21:58:29.101Z,2.15
2023-12-11T22:00:56.902Z,1.90
2023-12-11T22:03:23.935Z,1.77
2023-12-11T22:05:50.961Z,1.85
2023-12-11T22:08:17.803Z,1.80
2023-12-11T22:10:44.640Z,2.03
2023-12-11T22:13:11.573Z,2.63
2023-12-11T22:15:38.482Z,2.28
2023-12-11T22:18:05.571Z,2.10
2023-12-11T22:20:32.696Z,2.45
2023-12-11T22:22:59.493Z,2.33
2023-12-11T22:25:26.387Z,2.78
2023-12-11T22:27:54.054Z,2.50
2023-12-11T22:30:20.845Z,2.85
2023-12-11T22:32:47.691Z,2.30
2023-12-11T22:35:16.634Z,2.50
2023-12-11T22:37:43.870Z,2.72
2023-12-11T22:40:11.463Z,2.28
2023-12-11T22:42:38.346Z,2.10
2023-12-11T22:45:05.573Z,2.60
2023-12-11T22:47:32.645Z,2.10
2023-12-11T22:49:59.589Z,2.20
2023-12-11T22:52:26.750Z,2.20
2023-12-11T22:54:53.644Z,2.20
2023-12-11T22:57:20.433Z,1.98
2023-12-11T22:59:47.252Z,1.85
2023-12-11T23:02:14.148Z,2.28
2023-12-11T23:04:41.128Z,2.00
2023-12-11T23:07:08.397Z,2.55
2023-12-11T23:09:35.551Z,2.00
2023-12-11T23:12:02.381Z,2.00
2023-12-11T23:14:29.329Z,2.13
2023-12-11T23:16:56.125Z,2.50
2023-12-11T23:19:23.115Z,1.75
2023-12-11T23:21:50.602Z,2.10
2023-12-11T23:24:18.581Z,1.90
2023-12-11T23:26:45.466Z,1.70
2023-12-11T23:29:12.255Z,2.00
2023-12-11T23:31:39.066Z,2.20
2023-12-11T23:34:05.884Z,1.83
2023-12-11T23:36:32.828Z,2.47
2023-12-11T23:38:59.603Z,2.20
2023-12-11T23:41:26.407Z,2.67
2023-12-11T23:43:53.989Z,2.20
2023-12-11T23:46:20.875Z,1.90
2023-12-11T23:48:47.921Z,1.73
2023-12-11T23:51:14.766Z,1.90
2023-12-11T23:53:43.856Z,2.53
2023-12-11T23:56:10.643Z,2.10
2023-12-11T23:58:37.417Z,2.10
